Time;durP1;ratioP1;P1;durP2;ratioP2;P2;SDS_P1;SDS_P2;PMS_P1;PMS_P2;Temp;Humidity;BMP_temperature;BMP_pressure;BME280_temperature;BME280_humidity;BME280_pressure;Samples;Min_cycle;Max_cycle;Signal;HPM_P1;HPM_P2
2023/03/26 00:01:20;;;;;;;0.60;0.60;;;;;6.50;95483.00;;;;5054091;28;20282;-60
2023/03/26 00:03:52;;;;;;;0.93;0.93;;;;;6.50;95472.00;;;;5054274;28;20673;-61
2023/03/26 00:06:23;;;;;;;0.67;0.67;;;;;6.40;95479.00;;;;5054134;28;20255;-60
2023/03/26 00:08:51;;;;;;;0.60;0.60;;;;;6.50;95488.00;;;;5054421;28;20195;-59
2023/03/26 00:11:22;;;;;;;0.60;0.60;;;;;6.40;95490.00;;;;5052723;28;20207;-60
2023/03/26 00:13:52;;;;;;;0.60;0.60;;;;;6.30;95484.00;;;;5054295;28;20179;-60
2023/03/26 00:16:20;;;;;;;0.60;0.60;;;;;6.40;95483.00;;;;5054514;28;20602;-59
2023/03/26 00:18:48;;;;;;;0.60;0.60;;;;;6.30;95492.00;;;;5054301;28;20204;-59
2023/03/26 00:21:17;;;;;;;0.80;0.80;;;;;6.30;95485.00;;;;5053836;28;20201;-59
2023/03/26 00:23:46;;;;;;;0.57;0.57;;;;;6.20;95494.00;;;;5052489;28;20536;-60
2023/03/26 00:26:14;;;;;;;0.83;0.83;;;;;6.40;95478.00;;;;5053968;28;20210;-59
2023/03/26 00:28:42;;;;;;;1.20;1.17;;;;;6.50;95489.00;;;;5053774;28;20200;-59
2023/03/26 00:31:11;;;;;;;0.53;0.53;;;;;6.60;95476.00;;;;5053778;28;20659;-59
2023/03/26 00:33:39;;;;;;;0.57;0.57;;;;;6.50;95473.00;;;;5053772;28;20199;-59
2023/03/26 00:36:09;;;;;;;0.63;0.63;;;;;6.60;95469.00;;;;5052201;28;20235;-60
2023/03/26 00:38:38;;;;;;;0.60;0.60;;;;;6.50;95474.00;;;;5053576;28;20647;-60
2023/03/26 00:41:16;;;;;;;0.50;0.50;;;;;6.60;95469.00;;;;5052278;28;20615;-60
2023/03/26 00:43:45;;;;;;;0.60;0.60;;;;;6.50;95462.00;;;;5053418;28;20673;-59
2023/03/26 00:46:13;;;;;;;0.60;0.60;;;;;6.40;95463.00;;;;5053655;28;20281;-59
2023/03/26 00:48:42;;;;;;;0.70;0.70;;;;;6.40;95450.00;;;;5053434;28;20203;-61
2023/03/26 00:51:11;;;;;;;0.70;0.70;;;;;6.50;95462.00;;;;5053644;28;20354;-60
2023/03/26 00:53:40;;;;;;;0.70;0.70;;;;;6.50;95453.00;;;;5053324;28;20192;-60
2023/03/26 00:56:09;;;;;;;1.00;1.00;;;;;6.60;95452.00;;;;5053215;28;20584;-60
2023/03/26 00:58:37;;;;;;;0.60;0.60;;;;;6.50;95454.00;;;;5053223;28;20656;-60
2023/03/26 01:01:07;;;;;;;0.70;0.70;;;;;6.60;95443.00;;;;5053209;28;20196;-59
2023/03/26 01:03:37;;;;;;;0.60;0.60;;;;;6.60;95444.00;;;;5053140;28;20195;-60
2023/03/26 01:06:07;;;;;;;0.70;0.70;;;;;6.50;95433.00;;;;5053155;28;20248;-60
2023/03/26 01:08:38;;;;;;;0.83;0.83;;;;;6.30;95422.00;;;;5053376;28;20622;-60
2023/03/26 01:11:12;;;;;;;0.60;0.60;;;;;6.30;95417.00;;;;5052664;28;20184;-60
2023/03/26 01:13:44;;;;;;;1.00;1.00;;;;;6.30;95411.00;;;;5053355;28;20182;-59
2023/03/26 01:16:24;;;;;;;0.60;0.60;;;;;6.40;95409.00;;;;5053354;28;20230;-59
2023/03/26 01:18:52;;;;;;;0.70;0.70;;;;;6.40;95411.00;;;;5053320;28;20187;-60
2023/03/26 01:21:27;;;;;;;1.07;1.07;;;;;6.50;95412.00;;;;5053045;28;20254;-61
2023/03/26 01:24:00;;;;;;;0.70;0.70;;;;;6.50;95418.00;;;;5053097;28;20214;-59
2023/03/26 01:27:03;;;;;;;0.60;0.60;;;;;6.40;95424.00;;;;5052795;28;20222;-60
2023/03/26 01:29:35;;;;;;;1.70;1.13;;;;;6.30;95411.00;;;;5044928;28;20203;-60
2023/03/26 01:32:13;;;;;;;0.60;0.60;;;;;6.30;95401.00;;;;5053494;28;20180;-59
2023/03/26 01:34:52;;;;;;;0.60;0.60;;;;;6.20;95406.00;;;;5052768;28;20211;-60
2023/03/26 01:37:24;;;;;;;0.50;0.50;;;;;6.20;95396.00;;;;5052884;28;20183;-60
2023/03/26 01:39:57;;;;;;;0.60;0.60;;;;;6.20;95388.00;;;;5053110;28;20180;-60
2023/03/26 01:42:34;;;;;;;6.67;1.03;;;;;6.20;95384.00;;;;5053272;28;20181;-60
2023/03/26 01:45:07;;;;;;;0.50;0.50;;;;;6.10;95384.00;;;;5052840;28;20207;-59
2023/03/26 01:47:36;;;;;;;0.50;0.50;;;;;6.10;95375.00;;;;5053059;28;20218;-60
2023/03/26 01:50:04;;;;;;;1.17;1.17;;;;;6.10;95374.00;;;;5053262;28;20558;-60
2023/03/26 01:52:31;;;;;;;1.70;0.90;;;;;6.00;95369.00;;;;5052723;28;20659;-60
2023/03/26 01:55:01;;;;;;;0.70;0.70;;;;;6.00;95356.00;;;;5052543;28;20227;-60
2023/03/26 01:57:37;;;;;;;0.70;0.70;;;;;6.10;95344.00;;;;5052956;28;20721;-60
2023/03/26 02:00:18;;;;;;;0.70;0.70;;;;;6.10;95336.00;;;;5052763;28;20168;-60
2023/03/26 02:03:01;;;;;;;0.60;0.60;;;;;5.90;95343.00;;;;5053178;28;20218;-60
2023/03/26 02:05:32;;;;;;;0.97;0.90;;;;;6.00;95323.00;;;;5051308;28;20224;-60
2023/03/26 02:08:08;;;;;;;0.60;0.60;;;;;6.00;95320.00;;;;5052637;28;20183;-60
2023/03/26 02:10:41;;;;;;;0.70;0.70;;;;;5.90;95317.00;;;;5052542;28;20624;-60
2023/03/26 02:13:09;;;;;;;0.60;0.60;;;;;5.70;95314.00;;;;5052730;28;20184;-60
2023/03/26 02:15:36;;;;;;;0.70;0.70;;;;;5.80;95307.00;;;;5052316;28;20294;-60
2023/03/26 02:18:04;;;;;;;0.60;0.60;;;;;5.80;95314.00;;;;5052450;28;20200;-61
2023/03/26 02:20:31;;;;;;;0.50;0.50;;;;;5.50;95305.00;;;;5052677;28;20195;-60
2023/03/26 02:22:59;;;;;;;0.70;0.70;;;;;5.50;95306.00;;;;5052608;28;20204;-60
2023/03/26 02:25:26;;;;;;;0.67;0.67;;;;;5.70;95302.00;;;;5056030;28;20223;-60
2023/03/26 02:27:55;;;;;;;0.90;0.90;;;;;5.90;95293.00;;;;5056104;28;20265;-60
2023/03/26 02:30:25;;;;;;;0.60;0.60;;;;;5.80;95308.00;;;;5056431;28;20289;-60
2023/03/26 02:32:53;;;;;;;0.70;0.70;;;;;6.00;95303.00;;;;5055990;28;20232;-61
2023/03/26 02:35:21;;;;;;;1.17;1.17;;;;;5.90;95287.00;;;;5055802;28;20243;-61
2023/03/26 02:37:49;;;;;;;2.80;1.20;;;;;5.80;95305.00;;;;5056031;28;20199;-61
2023/03/26 02:40:20;;;;;;;0.80;0.80;;;;;5.80;95295.00;;;;5055908;28;20205;-61
2023/03/26 02:42:47;;;;;;;0.50;0.50;;;;;5.80;95293.00;;;;5055877;28;20184;-59
2023/03/26 02:45:16;;;;;;;2.47;1.47;;;;;5.90;95273.00;;;;5055997;28;20212;-60
2023/03/26 02:47:44;;;;;;;0.83;0.83;;;;;5.80;95276.00;;;;5055762;28;20217;-60
2023/03/26 02:50:12;;;;;;;1.20;1.20;;;;;5.80;95271.00;;;;5056430;28;20188;-60
2023/03/26 02:52:39;;;;;;;0.93;0.93;;;;;5.90;95265.00;;;;5055874;28;20705;-60
2023/03/26 02:55:07;;;;;;;1.00;1.00;;;;;5.90;95256.00;;;;5055621;28;20314;-60
2023/03/26 02:57:35;;;;;;;0.93;0.93;;;;;5.80;95242.00;;;;5055856;28;20199;-60
2023/03/26 03:00:12;;;;;;;1.33;1.13;;;;;5.90;95250.00;;;;5055706;28;20250;-59
2023/03/26 03:02:43;;;;;;;0.63;0.63;;;;;5.70;95242.00;;;;5055725;28;20571;-59
2023/03/26 03:05:10;;;;;;;1.00;1.00;;;;;5.70;95241.00;;;;5055893;28;20212;-60
2023/03/26 03:07:39;;;;;;;0.60;0.60;;;;;5.70;95235.00;;;;5055304;28;20199;-60
2023/03/26 03:10:08;;;;;;;0.50;0.50;;;;;5.70;95230.00;;;;5055290;28;20791;-61
2023/03/26 03:12:36;;;;;;;0.83;0.83;;;;;5.60;95232.00;;;;5055479;28;20665;-60
2023/03/26 03:15:04;;;;;;;0.50;0.50;;;;;5.60;95216.00;;;;5055069;28;20304;-59
2023/03/26 03:17:31;;;;;;;0.80;0.80;;;;;5.60;95214.00;;;;5055334;28;20725;-60
2023/03/26 03:20:00;;;;;;;0.93;0.93;;;;;5.70;95217.00;;;;5055157;28;20188;-60
2023/03/26 03:22:27;;;;;;;0.70;0.70;;;;;5.60;95207.00;;;;5055050;28;20192;-60
2023/03/26 03:24:56;;;;;;;0.60;0.60;;;;;5.60;95214.00;;;;5054932;28;20224;-61
2023/03/26 03:27:24;;;;;;;0.80;0.80;;;;;5.60;95205.00;;;;5054901;28;20688;-59
2023/03/26 03:29:54;;;;;;;0.90;0.90;;;;;5.60;95198.00;;;;5054964;28;20200;-61
2023/03/26 03:32:22;;;;;;;0.60;0.60;;;;;5.60;95213.00;;;;5054836;28;20203;-60
2023/03/26 03:34:50;;;;;;;1.27;1.27;;;;;5.60;95209.00;;;;5054552;28;20215;-59
2023/03/26 03:37:20;;;;;;;0.60;0.60;;;;;5.70;95207.00;;;;5054985;28;20216;-60
2023/03/26 03:39:47;;;;;;;0.60;0.60;;;;;5.60;95190.00;;;;5055061;28;20567;-61
2023/03/26 03:42:14;;;;;;;0.80;0.80;;;;;5.60;95188.00;;;;5054979;28;20562;-59
2023/03/26 03:44:42;;;;;;;0.70;0.70;;;;;5.80;95178.00;;;;5054675;28;20212;-60
2023/03/26 03:47:12;;;;;;;1.47;1.37;;;;;5.70;95170.00;;;;5053321;28;20227;-60
2023/03/26 03:49:40;;;;;;;0.97;0.80;;;;;5.60;95174.00;;;;5054817;28;20196;-60
2023/03/26 03:52:07;;;;;;;0.50;0.50;;;;;5.50;95175.00;;;;5054553;28;20306;-59
2023/03/26 03:54:36;;;;;;;1.00;1.00;;;;;5.60;95181.00;;;;5054325;28;20562;-59
2023/03/26 03:57:03;;;;;;;0.67;0.67;;;;;5.60;95173.00;;;;5054922;28;20248;-59
2023/03/26 03:59:31;;;;;;;0.50;0.50;;;;;5.60;95169.00;;;;5054398;28;20192;-60
2023/03/26 04:01:58;;;;;;;1.07;1.07;;;;;5.60;95167.00;;;;5054804;28;20203;-60
2023/03/26 04:04:26;;;;;;;0.60;0.60;;;;;5.50;95158.00;;;;5054221;28;20195;-60
2023/03/26 04:06:53;;;;;;;0.70;0.70;;;;;5.70;95159.00;;;;5054352;28;20287;-59
2023/03/26 04:09:21;;;;;;;0.70;0.70;;;;;5.70;95150.00;;;;5052937;28;20689;-60
2023/03/26 04:11:50;;;;;;;0.83;0.83;;;;;5.70;95137.00;;;;5054145;28;20199;-59
2023/03/26 04:14:18;;;;;;;0.90;0.90;;;;;5.70;95137.00;;;;5054027;28;20280;-60
2023/03/26 04:16:47;;;;;;;0.70;0.70;;;;;5.70;95137.00;;;;5053971;28;20238;-60
2023/03/26 04:19:15;;;;;;;0.73;0.73;;;;;5.80;95147.00;;;;5054258;28;20195;-60
2023/03/26 04:21:43;;;;;;;0.90;0.90;;;;;5.70;95126.00;;;;5053960;28;20291;-59
2023/03/26 04:24:10;;;;;;;0.60;0.60;;;;;5.70;95140.00;;;;5054176;28;20198;-60
2023/03/26 04:26:38;;;;;;;0.87;0.87;;;;;5.70;95131.00;;;;5053778;28;20212;-60
2023/03/26 04:29:11;;;;;;;0.63;0.63;;;;;5.60;95127.00;;;;5053725;28;20245;-60
2023/03/26 04:31:41;;;;;;;0.60;0.60;;;;;5.60;95112.00;;;;5054159;28;20631;-60
2023/03/26 04:34:17;;;;;;;0.60;0.60;;;;;5.80;95099.00;;;;5052909;28;20283;-60
2023/03/26 04:36:45;;;;;;;0.60;0.60;;;;;5.70;95099.00;;;;5053921;28;20202;-60
2023/03/26 04:39:13;;;;;;;0.67;0.67;;;;;5.60;95111.00;;;;5053609;28;20199;-58
2023/03/26 04:41:41;;;;;;;0.93;0.80;;;;;5.50;95097.00;;;;5053542;28;20269;-60
2023/03/26 04:44:10;;;;;;;0.60;0.60;;;;;5.40;95100.00;;;;5053522;28;20289;-60
2023/03/26 04:46:42;;;;;;;0.80;0.80;;;;;5.40;95091.00;;;;5053453;28;20234;-60
2023/03/26 04:49:10;;;;;;;0.87;0.87;;;;;5.50;95091.00;;;;5054011;28;20581;-60
2023/03/26 04:51:40;;;;;;;1.13;1.13;;;;;5.60;95087.00;;;;5053532;28;20246;-61
2023/03/26 04:54:11;;;;;;;1.33;1.33;;;;;5.50;95081.00;;;;5053559;28;20586;-60
2023/03/26 04:56:44;;;;;;;0.60;0.60;;;;;5.50;95084.00;;;;5053458;28;20259;-60
2023/03/26 04:59:16;;;;;;;0.50;0.50;;;;;5.60;95073.00;;;;5053815;28;20188;-60
2023/03/26 05:01:44;;;;;;;0.60;0.60;;;;;5.70;95069.00;;;;5053601;28;20180;-59
2023/03/26 05:04:12;;;;;;;2.03;1.27;;;;;5.70;95069.00;;;;5053415;28;20192;-60
2023/03/26 05:06:40;;;;;;;0.60;0.60;;;;;5.80;95065.00;;;;5053851;28;20286;-59
2023/03/26 05:09:09;;;;;;;0.60;0.60;;;;;5.70;95059.00;;;;5053374;28;20206;-60
2023/03/26 05:11:37;;;;;;;0.70;0.70;;;;;5.60;95058.00;;;;5053123;28;20200;-59
2023/03/26 05:14:04;;;;;;;0.60;0.60;;;;;5.60;95053.00;;;;5053230;28;20196;-58
2023/03/26 05:16:35;;;;;;;0.60;0.60;;;;;5.60;95048.00;;;;5052964;28;20268;-59
2023/03/26 05:19:03;;;;;;;0.67;0.67;;;;;5.60;95039.00;;;;5053050;28;20183;-60
2023/03/26 05:21:31;;;;;;;0.80;0.80;;;;;5.70;95032.00;;;;5053002;28;20283;-59
2023/03/26 05:23:58;;;;;;;0.60;0.60;;;;;5.60;95028.00;;;;5052884;28;20678;-60
2023/03/26 05:26:26;;;;;;;0.50;0.50;;;;;5.70;95024.00;;;;5053123;28;20212;-59
2023/03/26 05:28:53;;;;;;;6.17;1.33;;;;;5.60;95014.00;;;;5051645;28;20195;-59
2023/03/26 05:31:21;;;;;;;0.77;0.77;;;;;5.80;94979.00;;;;5053126;28;20246;-60
2023/03/26 05:33:51;;;;;;;0.77;0.77;;;;;5.70;95013.00;;;;5052893;28;20535;-60
2023/03/26 05:36:18;;;;;;;0.50;0.50;;;;;5.70;95011.00;;;;5052809;28;20307;-59
2023/03/26 05:38:48;;;;;;;0.60;0.60;;;;;5.70;95001.00;;;;5053297;28;20244;-60
2023/03/26 05:41:16;;;;;;;2.00;1.23;;;;;5.70;94993.00;;;;5053025;28;20219;-60
2023/03/26 05:43:46;;;;;;;0.70;0.70;;;;;5.70;94990.00;;;;5053308;28;20241;-60
2023/03/26 05:46:14;;;;;;;1.03;0.67;;;;;5.70;94987.00;;;;5052675;28;20207;-59
2023/03/26 05:48:41;;;;;;;0.60;0.60;;;;;5.70;94973.00;;;;5052712;28;20192;-59
2023/03/26 05:51:11;;;;;;;0.60;0.60;;;;;5.70;94969.00;;;;5053206;28;20196;-60
2023/03/26 05:53:38;;;;;;;4.53;0.77;;;;;5.70;94961.00;;;;5052712;28;20200;-59
2023/03/26 05:56:06;;;;;;;0.60;0.60;;;;;5.80;94967.00;;;;5052558;28;20561;-59
2023/03/26 05:58:35;;;;;;;0.50;0.50;;;;;5.70;94972.00;;;;5055507;28;20249;-60
2023/03/26 06:01:04;;;;;;;0.60;0.60;;;;;5.70;94969.00;;;;5057131;28;20226;-59
2023/03/26 06:03:32;;;;;;;0.70;0.70;;;;;5.70;94963.00;;;;5056612;28;20203;-60
2023/03/26 06:06:00;;;;;;;0.80;0.80;;;;;5.50;94950.00;;;;5055101;28;20695;-60
2023/03/26 06:08:29;;;;;;;0.70;0.70;;;;;5.60;94938.00;;;;5055268;28;20199;-60
2023/03/26 06:11:00;;;;;;;0.97;0.97;;;;;5.50;94940.00;;;;5057170;28;20283;-60
2023/03/26 06:13:27;;;;;;;1.03;1.03;;;;;5.50;94946.00;;;;5057457;28;20242;-60
2023/03/26 06:15:56;;;;;;;0.70;0.70;;;;;5.80;94938.00;;;;5056131;28;20216;-60
2023/03/26 06:18:24;;;;;;;0.90;0.90;;;;;5.90;94934.00;;;;5056834;28;20207;-60
2023/03/26 06:20:52;;;;;;;2.03;1.50;;;;;5.90;94938.00;;;;5056218;28;20185;-60
2023/03/26 06:23:20;;;;;;;0.80;0.80;;;;;6.10;94929.00;;;;5056216;28;20262;-59
2023/03/26 06:25:49;;;;;;;0.60;0.60;;;;;6.10;94922.00;;;;5056235;28;20247;-59
2023/03/26 06:28:17;;;;;;;0.67;0.67;;;;;6.20;94923.00;;;;5056163;28;20221;-60
2023/03/26 06:30:44;;;;;;;0.50;0.50;;;;;6.30;94925.00;;;;5056328;28;20196;-60
2023/03/26 06:33:12;;;;;;;1.30;1.30;;;;;6.20;94903.00;;;;5055988;28;20195;-60
2023/03/26 06:35:41;;;;;;;0.90;0.90;;;;;6.20;94903.00;;;;5056153;28;20230;-60
2023/03/26 06:38:09;;;;;;;0.60;0.60;;;;;6.20;94896.00;;;;5056186;28;20680;-61
2023/03/26 06:40:36;;;;;;;1.07;1.07;;;;;6.10;94895.00;;;;5054560;28;20749;-59
2023/03/26 06:43:05;;;;;;;0.60;0.60;;;;;6.30;94895.00;;;;5055878;28;20203;-59
2023/03/26 06:45:33;;;;;;;1.20;1.00;;;;;6.30;94890.00;;;;5055991;28;20269;-59
2023/03/26 06:48:01;;;;;;;0.60;0.60;;;;;6.40;94883.00;;;;5055775;28;20219;-60
2023/03/26 06:50:30;;;;;;;0.70;0.70;;;;;6.40;94875.00;;;;5055678;28;20655;-60
2023/03/26 06:52:58;;;;;;;0.50;0.50;;;;;6.30;94861.00;;;;5055658;28;20230;-59
2023/03/26 06:55:26;;;;;;;0.80;0.80;;;;;6.20;94860.00;;;;5055505;28;20227;-59
2023/03/26 06:57:56;;;;;;;2.13;1.50;;;;;6.20;94851.00;;;;5055419;28;20712;-59
2023/03/26 07:00:25;;;;;;;0.60;0.60;;;;;6.20;94847.00;;;;5055544;28;20692;-60
2023/03/26 07:02:53;;;;;;;2.80;1.57;;;;;6.30;94849.00;;;;5055456;28;20222;-60
2023/03/26 07:05:20;;;;;;;0.70;0.70;;;;;6.40;94844.00;;;;5055494;28;20785;-59
2023/03/26 07:07:48;;;;;;;0.80;0.80;;;;;6.30;94827.00;;;;5055311;28;20198;-59
2023/03/26 07:10:15;;;;;;;0.80;0.80;;;;;6.20;94837.00;;;;5054144;28;20188;-59
2023/03/26 07:12:43;;;;;;;0.93;0.93;;;;;6.20;94836.00;;;;5055249;28;20188;-60
2023/03/26 07:15:11;;;;;;;0.60;0.60;;;;;6.20;94825.00;;;;5055433;28;20569;-60
2023/03/26 07:17:40;;;;;;;0.80;0.80;;;;;6.30;94822.00;;;;5055328;28;20569;-60
2023/03/26 07:20:08;;;;;;;0.70;0.70;;;;;6.20;94809.00;;;;5055162;28;20241;-59
2023/03/26 07:22:36;;;;;;;2.27;1.73;;;;;6.30;94822.00;;;;5055002;28;20200;-60
2023/03/26 07:25:05;;;;;;;0.77;0.77;;;;;6.30;94817.00;;;;5055192;28;20215;-60
2023/03/26 07:27:47;;;;;;;0.60;0.60;;;;;6.20;94816.00;;;;5055201;28;20667;-60
2023/03/26 07:30:19;;;;;;;0.90;0.90;;;;;6.20;94807.00;;;;5055539;28;20238;-59
2023/03/26 07:32:54;;;;;;;0.60;0.60;;;;;6.30;94790.00;;;;5055373;28;20189;-60
2023/03/26 07:35:28;;;;;;;1.00;1.00;;;;;6.30;94810.00;;;;5054957;28;20212;-60
2023/03/26 07:38:14;;;;;;;0.80;0.80;;;;;6.30;94801.00;;;;5055043;28;20561;-60
2023/03/26 07:40:51;;;;;;;1.43;1.43;;;;;6.10;94804.00;;;;5054967;28;20195;-60
2023/03/26 07:43:30;;;;;;;0.60;0.60;;;;;6.20;94792.00;;;;5055199;28;20186;-60
2023/03/26 07:45:58;;;;;;;1.80;1.70;;;;;6.40;94790.00;;;;5055156;28;20268;-59
2023/03/26 07:48:32;;;;;;;1.97;1.87;;;;;6.50;94791.00;;;;5054629;28;20195;-60
2023/03/26 07:51:01;;;;;;;1.00;1.00;;;;;6.50;94784.00;;;;5054608;28;20209;-60
2023/03/26 07:53:29;;;;;;;0.60;0.60;;;;;6.30;94773.00;;;;5054764;28;20196;-60
2023/03/26 07:56:07;;;;;;;0.60;0.60;;;;;6.30;94768.00;;;;5054263;28;20215;-60
2023/03/26 07:58:57;;;;;;;0.93;0.93;;;;;6.30;94768.00;;;;5054782;28;20200;-59
2023/03/26 08:01:46;;;;;;;1.70;1.60;;;;;6.40;94774.00;;;;5054885;28;20183;-59
2023/03/26 08:04:42;;;;;;;0.70;0.70;;;;;6.40;94765.00;;;;5054547;28;20188;-60
2023/03/26 08:07:18;;;;;;;0.57;0.57;;;;;6.30;94766.00;;;;5054296;28;20551;-59
2023/03/26 08:09:57;;;;;;;0.60;0.60;;;;;6.50;94765.00;;;;5054219;28;20200;-60
2023/03/26 08:12:34;;;;;;;1.47;1.37;;;;;6.50;94760.00;;;;5054435;28;20191;-59
2023/03/26 08:15:11;;;;;;;0.90;0.90;;;;;6.40;94766.00;;;;5054146;28;20287;-66
2023/03/26 08:17:43;;;;;;;0.60;0.60;;;;;6.50;94756.00;;;;5053907;28;20620;-59
2023/03/26 08:20:27;;;;;;;0.93;0.93;;;;;6.40;94743.00;;;;5054308;28;20219;-61
2023/03/26 08:22:59;;;;;;;0.70;0.70;;;;;6.40;94738.00;;;;5054561;28;20180;-59
2023/03/26 08:25:31;;;;;;;0.70;0.70;;;;;6.50;94729.00;;;;5054210;28;20300;-59
2023/03/26 08:28:18;;;;;;;0.60;0.60;;;;;6.80;94736.00;;;;5053928;28;20183;-60
2023/03/26 08:30:46;;;;;;;0.60;0.60;;;;;6.70;94732.00;;;;5054165;28;20263;-60
2023/03/26 08:33:17;;;;;;;1.03;1.03;;;;;7.00;94733.00;;;;5053909;28;20195;-60
2023/03/26 08:35:47;;;;;;;1.33;1.33;;;;;6.90;94738.00;;;;5053510;28;20216;-59
2023/03/26 08:38:17;;;;;;;0.73;0.73;;;;;6.90;94727.00;;;;5053386;28;20222;-59
2023/03/26 08:41:43;;;;;;;5.53;1.53;;;;;7.10;94736.00;;;;5052234;28;20247;-61
2023/03/26 08:45:00;;;;;;;0.60;0.60;;;;;6.90;94710.00;;;;5053609;28;20647;-60
2023/03/26 08:48:05;;;;;;;0.80;0.80;;;;;6.90;94723.00;;;;5054028;28;20183;-60
2023/03/26 08:50:54;;;;;;;0.53;0.53;;;;;7.20;94718.00;;;;5053608;28;20191;-60
2023/03/26 08:53:49;;;;;;;1.40;1.27;;;;;7.70;94730.00;;;;5053584;28;20706;-60
2023/03/26 08:56:23;;;;;;;0.73;0.73;;;;;8.00;94731.00;;;;5049680;28;20239;-59
2023/03/26 08:59:20;;;;;;;5.93;2.00;;;;;7.80;94732.00;;;;5053426;28;20299;-59
2023/03/26 09:02:06;;;;;;;0.70;0.70;;;;;7.50;94719.00;;;;5053274;28;20230;-59
2023/03/26 09:04:49;;;;;;;0.80;0.80;;;;;7.80;94722.00;;;;5053478;28;20519;-59
2023/03/26 09:07:58;;;;;;;0.60;0.60;;;;;8.30;94715.00;;;;5053455;28;20623;-60
2023/03/26 09:10:49;;;;;;;1.07;1.07;;;;;7.80;94733.00;;;;5053442;28;20200;-60
2023/03/26 09:14:02;;;;;;;0.60;0.60;;;;;8.40;94732.00;;;;5053147;28;20547;-60
2023/03/26 09:16:55;;;;;;;0.60;0.60;;;;;8.10;94740.00;;;;5053589;28;20686;-60
2023/03/26 09:20:08;;;;;;;1.67;1.03;;;;;8.30;94723.00;;;;5053334;28;20184;-59
2023/03/26 09:23:03;;;;;;;0.73;0.73;;;;;8.40;94732.00;;;;5053309;28;20262;-60
2023/03/26 09:26:00;;;;;;;1.13;1.13;;;;;8.50;94711.00;;;;5053313;28;20219;-59
2023/03/26 09:29:14;;;;;;;0.60;0.60;;;;;8.60;94728.00;;;;5053247;28;20187;-60
2023/03/26 09:32:17;;;;;;;0.60;0.60;;;;;9.00;94721.00;;;;5052819;28;20628;-61
2023/03/26 09:35:11;;;;;;;0.63;0.63;;;9.60;70.40;9.10;94718.00;;;;5052857;28;20222;-60
2023/03/26 09:37:57;;;;;;;0.73;0.73;;;9.80;70.30;9.20;94735.00;;;;5053053;28;20606;-60
2023/03/26 09:40:36;;;;;;;0.80;0.80;;;;;9.00;94723.00;;;;5053140;28;20181;-60
2023/03/26 09:43:29;;;;;;;0.50;0.50;;;;;9.10;94719.00;;;;5053057;28;20211;-60
2023/03/26 09:46:13;;;;;;;0.50;0.50;;;9.70;67.20;9.10;94738.00;;;;5052972;28;20226;-61
2023/03/26 09:49:30;;;;;;;0.70;0.70;;;9.80;68.80;9.10;94739.00;;;;5053248;28;20263;-60
2023/03/26 09:52:14;;;;;;;0.83;0.83;;;;;9.40;94729.00;;;;5052887;28;20181;-60
2023/03/26 09:55:11;;;;;;;0.50;0.50;;;;;9.80;94736.00;;;;5052796;28;20567;-59
2023/03/26 09:57:57;;;;;;;0.60;0.60;;;;;10.40;94737.00;;;;5052603;28;20219;-60
2023/03/26 10:00:32;;;;;;;0.93;0.93;;;;;10.60;94736.00;;;;5051248;28;20258;-60
2023/03/26 10:03:18;;;;;;;0.50;0.50;;;;;10.00;94735.00;;;;5052951;28;20172;-59
2023/03/26 10:05:57;;;;;;;1.60;1.23;;;;;9.60;94751.00;;;;5052560;28;20216;-61
2023/03/26 10:08:50;;;;;;;0.50;0.50;;;;;9.80;94734.00;;;;5052608;28;20181;-59
2023/03/26 10:11:26;;;;;;;0.63;0.63;;;;;9.80;94729.00;;;;5052855;28;20173;-59
2023/03/26 10:14:03;;;;;;;0.60;0.60;;;;;9.60;94738.00;;;;5051216;28;20192;-60
2023/03/26 10:16:41;;;;;;;1.13;0.70;;;;;9.50;94742.00;;;;5052678;28;20216;-62
2023/03/26 10:19:31;;;;;;;0.50;0.50;;;;;9.70;94733.00;;;;5052409;28;20659;-59
2023/03/26 10:22:08;;;;;;;0.43;0.43;;;;;10.00;94719.00;;;;5052659;28;20187;-59
2023/03/26 10:24:56;;;;;;;0.50;0.50;;;;;9.80;94748.00;;;;5052543;28;20278;-60
2023/03/26 10:27:32;;;;;;;0.70;0.70;;;;;10.10;94707.00;;;;5051115;28;20192;-61
2023/03/26 10:30:16;;;;;;;0.70;0.70;;;;;10.40;94708.00;;;;5052627;28;20180;-59
2023/03/26 10:32:53;;;;;;;0.53;0.53;;;;;10.90;94707.00;;;;5053056;28;20538;-60
2023/03/26 10:35:30;;;;;;;0.60;0.60;;;;;10.70;94721.00;;;;5052287;28;20208;-58
2023/03/26 10:38:15;;;;;;;0.60;0.60;;;;;10.40;94718.00;;;;5052464;28;20200;-60
2023/03/26 10:40:51;;;;;;;0.73;0.73;;;;;9.90;94743.00;;;;5052543;28;20567;-59
2023/03/26 10:43:48;;;;;;;0.90;0.90;;;;;10.20;94733.00;;;;5053077;28;20261;-59
2023/03/26 10:46:34;;;;;;;0.50;0.50;;;;;10.20;94736.00;;;;5055758;28;20212;-58
2023/03/26 10:49:33;;;;;;;0.50;0.50;;;;;9.90;94732.00;;;;5056004;28;20180;-59
2023/03/26 10:52:04;;;;;;;0.60;0.60;;;;;9.70;94747.00;;;;5055655;28;20189;-59
2023/03/26 10:54:45;;;;;;;0.60;0.60;;;;;9.80;94745.00;;;;5055619;28;20639;-61
2023/03/26 10:57:23;;;;;;;0.50;0.50;;;;;9.50;94721.00;;;;5069711;22;20262;-62
2023/03/26 10:59:53;;;;;;;1.37;1.27;;;;;9.80;94689.00;;;;5037689;28;20253;-61
2023/03/26 11:02:29;;;;;;;0.50;0.50;;;;;10.60;94703.00;;;;5055743;28;20188;-63
2023/03/26 11:05:15;;;;;;;0.73;0.73;;;;;10.20;94716.00;;;;5055619;28;20188;-62
2023/03/26 11:07:50;;;;;;;0.50;0.50;;;;;10.70;94706.00;;;;5035977;28;20529;-62
2023/03/26 11:10:25;;;;;;;0.57;0.57;;;;;10.60;94703.00;;;;5035687;28;20180;-62
2023/03/26 11:12:58;;;;;;;0.80;0.80;;;;;10.40;94708.00;;;;5035464;28;20242;-64
2023/03/26 11:15:31;;;;;;;0.47;0.47;;;;;10.50;94724.00;;;;5035869;28;20189;-62
2023/03/26 11:18:08;;;;;;;0.90;0.90;;;;;10.30;94725.00;;;;5035300;28;20252;-62
2023/03/26 11:20:41;;;;;;;0.60;0.60;;;;;10.40;94715.00;;;;5017650;28;20188;-62
2023/03/26 11:23:29;;;;;;;0.57;0.57;;;;;10.50;94727.00;;;;5035317;28;20184;-62
2023/03/26 11:26:08;;;;;;;0.50;0.50;;;;;10.40;94717.00;;;;5035413;28;20216;-62
2023/03/26 11:28:59;;;;;;;0.60;0.60;;;;;10.60;94700.00;;;;5035881;28;20181;-63
2023/03/26 11:31:35;;;;;;;4.03;0.73;;;;;10.80;94705.00;;;;5035153;28;20267;-61
2023/03/26 11:34:08;;;;;;;0.50;0.50;;;;;10.90;94695.00;;;;5035462;28;20230;-61
2023/03/26 11:36:42;;;;;;;0.77;0.77;;;;;11.00;94703.00;;;;5035028;28;20216;-61
2023/03/26 11:39:13;;;;;;;0.60;0.60;;;;;11.10;94699.00;;;;5034765;28;20259;-61
2023/03/26 11:41:41;;;;;;;0.80;0.80;;;;;10.80;94703.00;;;;5035189;28;20189;-61
2023/03/26 11:44:19;;;;;;;0.70;0.70;;;;;10.90;94716.00;;;;5016920;28;20683;-61
2023/03/26 11:46:52;;;;;;;0.60;0.60;;;;;11.30;94696.00;;;;5034977;28;20288;-61
2023/03/26 11:49:21;;;;;;;0.70;0.70;;;;;11.60;94710.00;;;;5035219;28;20188;-62
2023/03/26 11:51:49;;;;;;;0.83;0.83;;;;;11.10;94684.00;;;;5016864;28;20284;-62
2023/03/26 11:54:19;;;;;;;0.50;0.50;;;;;11.10;94724.00;;;;5034489;28;20220;-62
2023/03/26 11:56:52;;;;;;;0.50;0.50;;;;;10.80;94733.00;;;;5033727;28;20267;-62
2023/03/26 11:59:24;;;;;;;0.53;0.53;;;;;10.80;94722.00;;;;5034789;28;20564;-62
2023/03/26 12:01:57;;;;;;;0.50;0.50;;;;;10.80;94691.00;;;;5016826;28;20173;-62
2023/03/26 12:04:28;;;;;;;0.67;0.67;;;;;11.60;94703.00;;;;5034911;28;20592;-63
2023/03/26 12:06:58;;;;;;;14.10;1.27;;;;;11.60;94713.00;;;;5033957;28;20339;-62
2023/03/26 12:09:26;;;;;;;0.60;0.60;;;;;11.80;94681.00;;;;5034315;28;20204;-62
2023/03/26 12:11:59;;;;;;;0.50;0.50;;;;;11.60;94685.00;;;;5034137;28;20283;-62
2023/03/26 12:14:32;;;;;;;0.50;0.50;;;;;11.90;94705.00;;;;5034619;28;20210;-62
2023/03/26 12:17:04;;;;;;;0.60;0.60;;;;;12.00;94680.00;;;;5034017;28;20716;-62
2023/03/26 12:19:39;;;;;;;0.50;0.50;;;;;11.90;94712.00;;;;5034019;28;20336;-62
2023/03/26 12:22:26;;;;;;;0.90;0.90;;;;;11.30;94709.00;;;;5034073;28;20208;-62
2023/03/26 12:25:09;;;;;;;0.60;0.60;;;;;11.40;94700.00;;;;5034433;28;20188;-63
2023/03/26 12:27:42;;;;;;;0.50;0.50;;;;;11.50;94707.00;;;;5016220;28;20240;-61
2023/03/26 12:30:19;;;;;;;0.60;0.60;;;;;11.60;94709.00;;;;5034269;28;20582;-61
2023/03/26 12:32:49;;;;;;;1.40;0.67;;;;;11.70;94682.00;;;;5034142;28;20254;-61
2023/03/26 12:35:19;;;;;;;0.40;0.40;;;;;12.10;94695.00;;;;5033618;28;20204;-61
2023/03/26 12:37:47;;;;;;;0.90;0.60;;;;;12.20;94672.00;;;;5033948;28;20200;-61
2023/03/26 12:40:31;;;;;;;0.70;0.70;;;;;12.90;94675.00;;;;5033649;28;20221;-61
2023/03/26 12:43:00;;;;;;;0.50;0.50;;;;;12.30;94673.00;;;;5033669;28;20181;-63
2023/03/26 12:45:37;;;;;;;0.50;0.50;;;;;12.20;94674.00;;;;5033930;28;20200;-62
2023/03/26 12:48:07;;;;;;;0.87;0.87;;;;;12.10;94668.00;;;;5033522;28;20185;-62
2023/03/26 12:50:53;;;;;;;1.03;1.03;;;;;12.60;94642.00;;;;5034215;28;20270;-62
2023/03/26 12:53:41;;;;;;;0.50;0.50;;;;;12.70;94658.00;;;;5034315;28;20200;-62
2023/03/26 12:56:18;;;;;;;1.27;1.03;;;;;13.40;94653.00;;;;5033517;28;20221;-62
2023/03/26 12:59:02;;;;;;;0.60;0.60;;;;;14.00;94650.00;;;;5033362;28;20204;-62